createdAt,value
2022-11-27T00:00:38.053Z,9.13
2022-11-27T00:03:07.275Z,7.68
2022-11-27T00:05:37.816Z,7.57
2022-11-27T00:08:08.446Z,7.30
2022-11-27T00:10:37.720Z,7.38
2022-11-27T00:13:06.792Z,7.68
2022-11-27T00:15:36.915Z,7.22
2022-11-27T00:18:06.286Z,6.72
2022-11-27T00:20:35.388Z,7.25
2022-11-27T00:23:05.903Z,6.53
2022-11-27T00:25:34.977Z,5.55
2022-11-27T00:28:04.091Z,5.78
2022-11-27T00:30:33.160Z,5.43
2022-11-27T00:33:02.413Z,6.43
2022-11-27T00:35:31.454Z,6.35
2022-11-27T00:38:00.818Z,6.95
2022-11-27T00:40:31.507Z,6.15
2022-11-27T00:43:01.535Z,6.35
2022-11-27T00:45:30.592Z,6.07
2022-11-27T00:47:59.667Z,6.85
2022-11-27T00:50:31.680Z,6.80
2022-11-27T00:53:00.793Z,5.97
2022-11-27T00:55:31.275Z,5.88
2022-11-27T00:58:00.397Z,5.65
2022-11-27T01:00:29.488Z,7.53
2022-11-27T01:02:58.581Z,6.82
2022-11-27T01:05:27.743Z,8.60
2022-11-27T01:07:56.943Z,8.48
2022-11-27T01:10:26.170Z,9.13
2022-11-27T01:12:56.587Z,10.85
2022-11-27T01:15:25.653Z,10.40
2022-11-27T01:17:54.855Z,11.63
2022-11-27T01:20:24.147Z,9.20
2022-11-27T01:22:53.305Z,8.85
2022-11-27T01:25:26.727Z,11.35
2022-11-27T01:27:57.577Z,10.45
2022-11-27T01:30:26.687Z,10.20
2022-11-27T01:32:55.847Z,9.32
2022-11-27T01:35:24.988Z,9.73
2022-11-27T01:37:53.996Z,9.43
2022-11-27T01:40:23.311Z,9.20
2022-11-27T01:42:52.477Z,8.63
2022-11-27T01:45:23.510Z,9.63
2022-11-27T01:47:56.464Z,10.52
2022-11-27T01:50:31.511Z,10.70
2022-11-27T01:53:07.956Z,9.75
2022-11-27T01:55:42.332Z,9.07
2022-11-27T01:58:14.586Z,8.60
2022-11-27T02:00:45.189Z,8.13
2022-11-27T02:03:14.396Z,9.20
2022-11-27T02:05:44.620Z,8.90
2022-11-27T02:08:17.421Z,8.80
2022-11-27T02:10:53.568Z,10.63
2022-11-27T02:13:31.839Z,9.77
2022-11-27T02:16:17.791Z,9.90
2022-11-27T02:18:57.340Z,9.25
2022-11-27T02:21:37.530Z,9.60
2022-11-27T02:24:39.460Z,9.00
2022-11-27T02:27:50.615Z,8.85
2022-11-27T02:30:21.488Z,7.78
2022-11-27T02:32:58.355Z,8.63
2022-11-27T02:35:33.509Z,8.10
2022-11-27T02:38:09.498Z,8.38
2022-11-27T02:40:46.295Z,8.50
2022-11-27T02:43:21.929Z,7.78
2022-11-27T02:45:53.687Z,7.75
2022-11-27T02:48:30.936Z,8.68
2022-11-27T02:51:01.189Z,9.25
2022-11-27T02:53:37.970Z,18.33
2022-11-27T02:56:09.959Z,11.75
2022-11-27T02:58:39.810Z,10.05
2022-11-27T03:01:12.841Z,11.38
2022-11-27T03:03:46.703Z,10.50
2022-11-27T03:06:23.627Z,9.07
2022-11-27T03:08:58.793Z,9.40
2022-11-27T03:11:30.873Z,9.57
2022-11-27T03:14:05.683Z,9.65
2022-11-27T03:16:43.693Z,10.90
2022-11-27T03:19:21.152Z,11.73
2022-11-27T03:21:53.936Z,11.88
2022-11-27T03:24:23.274Z,11.02
2022-11-27T03:26:53.031Z,12.27
2022-11-27T03:29:24.834Z,20.08
2022-11-27T03:31:56.500Z,32.70
2022-11-27T03:34:25.968Z,23.27
2022-11-27T03:36:55.092Z,18.98
2022-11-27T03:39:26.018Z,37.60
2022-11-27T03:42:06.484Z,23.15
2022-11-27T03:44:43.583Z,16.92
2022-11-27T03:47:27.675Z,12.00
2022-11-27T03:50:14.599Z,8.93
2022-11-27T03:52:53.950Z,7.67
2022-11-27T03:55:32.940Z,7.38
2022-11-27T03:58:06.186Z,7.28
2022-11-27T04:00:39.421Z,6.38
2022-11-27T04:03:13.239Z,6.40
2022-11-27T04:05:42.473Z,6.80
2022-11-27T04:08:11.547Z,7.72
2022-11-27T04:10:40.659Z,8.57
2022-11-27T04:13:09.731Z,7.88
2022-11-27T04:15:38.845Z,8.00
2022-11-27T04:18:08.131Z,7.97
2022-11-27T04:20:38.733Z,8.27
2022-11-27T04:23:08.019Z,9.05
2022-11-27T04:25:37.263Z,9.73
2022-11-27T04:28:06.284Z,10.52
2022-11-27T04:30:35.678Z,10.57
2022-11-27T04:33:05.041Z,11.32
2022-11-27T04:35:34.091Z,11.05
2022-11-27T04:38:04.556Z,9.88
2022-11-27T04:40:33.638Z,8.95
2022-11-27T04:43:02.715Z,9.63
2022-11-27T04:45:31.790Z,8.60
2022-11-27T04:48:00.871Z,7.97
2022-11-27T04:50:29.899Z,8.10
2022-11-27T04:52:59.976Z,7.00
2022-11-27T04:55:30.588Z,6.30
2022-11-27T04:57:59.655Z,7.15
2022-11-27T05:00:28.793Z,7.45
2022-11-27T05:02:58.083Z,8.50
2022-11-27T05:05:27.256Z,8.70
2022-11-27T05:07:56.396Z,10.43
2022-11-27T05:10:25.729Z,9.85
2022-11-27T05:12:56.167Z,9.00
2022-11-27T05:15:25.300Z,8.48
2022-11-27T05:17:54.379Z,9.15
2022-11-27T05:20:23.475Z,8.80
2022-11-27T05:22:52.592Z,8.55
2022-11-27T05:25:21.674Z,8.48
2022-11-27T05:27:50.765Z,9.13
2022-11-27T05:30:21.200Z,9.05
2022-11-27T05:32:50.237Z,8.85
2022-11-27T05:35:19.343Z,8.32
2022-11-27T05:37:48.406Z,7.47
2022-11-27T05:40:17.755Z,8.82
2022-11-27T05:42:46.816Z,7.20
2022-11-27T05:45:16.025Z,8.20
2022-11-27T05:47:46.547Z,7.00
2022-11-27T05:50:15.995Z,8.80
2022-11-27T05:52:45.039Z,8.20
2022-11-27T05:55:14.413Z,7.60
2022-11-27T05:57:43.574Z,7.88
2022-11-27T06:00:14.664Z,7.95
2022-11-27T06:02:43.946Z,8.38
2022-11-27T06:05:14.436Z,8.55
2022-11-27T06:07:43.664Z,8.40
2022-11-27T06:10:13.148Z,7.35
2022-11-27T06:12:42.249Z,7.50
2022-11-27T06:15:11.813Z,8.52
2022-11-27T06:17:40.942Z,8.70
2022-11-27T06:20:11.044Z,9.88
2022-11-27T06:22:41.602Z,9.88
2022-11-27T06:25:11.085Z,9.45
2022-11-27T06:27:40.328Z,8.88
2022-11-27T06:30:10.858Z,8.70
2022-11-27T06:32:41.288Z,8.52
2022-11-27T06:35:11.391Z,8.90
2022-11-27T06:37:42.060Z,8.45
2022-11-27T06:40:12.105Z,8.48
2022-11-27T06:42:41.274Z,8.75
2022-11-27T06:45:11.924Z,9.50
2022-11-27T06:47:41.130Z,11.05
2022-11-27T06:50:11.298Z,10.40
2022-11-27T06:52:42.126Z,10.60
2022-11-27T06:55:11.535Z,11.43
2022-11-27T06:57:42.258Z,11.80
2022-11-27T07:00:13.280Z,10.77
2022-11-27T07:02:42.480Z,13.85
2022-11-27T07:05:11.539Z,15.20
2022-11-27T07:07:43.926Z,14.23
2022-11-27T07:10:13.616Z,15.23
2022-11-27T07:12:42.884Z,16.00
2022-11-27T07:15:12.634Z,13.40
2022-11-27T07:17:42.704Z,11.48
2022-11-27T07:20:12.929Z,9.57
2022-11-27T07:22:43.334Z,12.32
2022-11-27T07:25:12.499Z,26.23
2022-11-27T07:27:42.076Z,9.60
2022-11-27T07:30:12.551Z,9.10
2022-11-27T07:32:41.651Z,9.55
2022-11-27T07:35:11.383Z,10.63
2022-11-27T07:37:41.959Z,12.15
2022-11-27T07:40:11.411Z,10.75
2022-11-27T07:42:40.655Z,12.63
2022-11-27T07:45:10.952Z,11.85
2022-11-27T07:47:40.741Z,12.70
2022-11-27T07:50:11.736Z,14.02
2022-11-27T07:52:42.435Z,14.13
2022-11-27T07:55:11.859Z,12.23
2022-11-27T07:57:42.462Z,11.20
2022-11-27T08:00:12.755Z,10.43
2022-11-27T08:02:41.848Z,10.50
2022-11-27T08:05:13.217Z,9.15
2022-11-27T08:07:45.264Z,9.05
2022-11-27T08:10:14.500Z,10.05
2022-11-27T08:12:43.782Z,9.75
2022-11-27T08:15:13.814Z,9.70
2022-11-27T08:17:43.007Z,9.98
2022-11-27T08:20:12.933Z,9.35
2022-11-27T08:22:41.983Z,8.82
2022-11-27T08:25:12.839Z,9.50
2022-11-27T08:27:41.935Z,8.02
2022-11-27T08:30:13.064Z,7.10
2022-11-27T08:32:44.708Z,6.32
2022-11-27T08:35:13.972Z,6.05
2022-11-27T08:37:43.256Z,5.78
2022-11-27T08:40:14.351Z,5.57
2022-11-27T08:42:45.334Z,5.82
2022-11-27T08:45:14.553Z,5.82
2022-11-27T08:47:43.993Z,5.95
2022-11-27T08:50:13.160Z,5.63
2022-11-27T08:52:42.369Z,5.53
2022-11-27T08:55:11.558Z,5.05
2022-11-27T08:57:42.093Z,5.10
2022-11-27T09:00:13.173Z,5.00
2022-11-27T09:02:42.200Z,5.80
2022-11-27T09:05:11.972Z,5.60
2022-11-27T09:07:42.061Z,5.20
2022-11-27T09:10:11.757Z,5.72
2022-11-27T09:12:43.678Z,5.53
2022-11-27T09:15:13.274Z,5.57
2022-11-27T09:17:42.419Z,5.10
2022-11-27T09:20:14.368Z,5.32
2022-11-27T09:22:43.450Z,5.60
2022-11-27T09:25:12.636Z,5.28
2022-11-27T09:27:43.108Z,6.32
2022-11-27T09:30:14.033Z,6.82
2022-11-27T09:32:43.227Z,6.88
2022-11-27T09:35:12.428Z,5.00
2022-11-27T09:37:41.637Z,4.80
2022-11-27T09:40:17.032Z,5.00
2022-11-27T09:43:02.210Z,4.32
2022-11-27T09:45:32.763Z,5.10
2022-11-27T09:48:06.508Z,4.60
2022-11-27T09:50:40.539Z,4.00
2022-11-27T09:53:24.083Z,4.53
2022-11-27T09:55:58.557Z,4.18
2022-11-27T09:58:39.951Z,4.90
2022-11-27T10:01:14.047Z,4.13
2022-11-27T10:03:45.867Z,4.43
2022-11-27T10:06:28.158Z,4.22
2022-11-27T10:09:14.342Z,4.15
2022-11-27T10:11:55.412Z,4.45
2022-11-27T10:14:43.614Z,3.90
2022-11-27T10:17:20.613Z,4.00
2022-11-27T10:19:59.892Z,4.22
2022-11-27T10:22:35.422Z,4.03
2022-11-27T10:25:16.908Z,3.50
2022-11-27T10:28:00.773Z,3.33
2022-11-27T10:30:37.900Z,3.38
2022-11-27T10:33:18.706Z,3.40
2022-11-27T10:35:50.904Z,3.40
2022-11-27T10:38:24.447Z,3.42
2022-11-27T10:41:05.640Z,3.25
2022-11-27T10:43:35.453Z,3.28
2022-11-27T10:46:14.982Z,3.47
2022-11-27T10:48:44.722Z,3.10
2022-11-27T10:51:18.914Z,2.60
2022-11-27T10:53:52.195Z,2.63
2022-11-27T10:56:53.985Z,2.83
2022-11-27T10:59:33.194Z,2.60
2022-11-27T11:02:07.707Z,2.47
2022-11-27T11:04:38.619Z,2.40
2022-11-27T11:07:27.259Z,2.72
2022-11-27T11:09:57.434Z,2.53
2022-11-27T11:12:27.598Z,2.50
2022-11-27T11:14:59.204Z,2.55
2022-11-27T11:17:34.652Z,2.33
2022-11-27T11:20:21.797Z,2.67
2022-11-27T11:22:51.919Z,2.10
2022-11-27T11:25:22.988Z,2.92
2022-11-27T11:27:53.759Z,2.17
2022-11-27T11:30:29.562Z,2.42
2022-11-27T11:33:04.854Z,2.35
2022-11-27T11:35:36.524Z,2.05
2022-11-27T11:38:14.685Z,2.20
2022-11-27T11:40:46.730Z,2.38
2022-11-27T11:43:27.534Z,2.28
2022-11-27T11:46:07.255Z,2.20
2022-11-27T11:48:39.015Z,2.33
2022-11-27T11:51:15.946Z,1.90
2022-11-27T11:53:50.839Z,3.25
2022-11-27T11:56:32.839Z,2.08
2022-11-27T11:59:05.710Z,2.67
2022-11-27T12:01:54.440Z,2.08
2022-11-27T12:05:03.055Z,2.20
2022-11-27T12:07:52.186Z,2.50
2022-11-27T12:10:28.317Z,2.47
2022-11-27T12:13:09.179Z,2.60
2022-11-27T12:15:44.354Z,1.90
2022-11-27T12:18:25.280Z,2.22
2022-11-27T12:21:13.619Z,2.35
2022-11-27T12:24:12.978Z,2.33
2022-11-27T12:27:01.625Z,2.25
2022-11-27T12:29:48.760Z,2.45
2022-11-27T12:32:40.082Z,2.90
2022-11-27T12:35:31.411Z,2.55
2022-11-27T12:38:21.119Z,2.22
2022-11-27T12:41:12.587Z,2.40
2022-11-27T12:43:46.701Z,2.22
2022-11-27T12:46:24.246Z,4.30
2022-11-27T12:48:58.054Z,3.97
2022-11-27T12:51:32.787Z,2.72
2022-11-27T12:54:10.851Z,3.10
2022-11-27T12:56:45.680Z,2.40
2022-11-27T12:59:22.572Z,3.17
2022-11-27T13:02:01.119Z,2.40
2022-11-27T13:04:38.534Z,2.30
2022-11-27T13:07:14.636Z,2.55
2022-11-27T13:09:53.782Z,2.47
2022-11-27T13:12:30.921Z,2.60
2022-11-27T13:15:04.336Z,2.67
2022-11-27T13:17:41.249Z,1.80
2022-11-27T13:20:17.911Z,2.17
2022-11-27T13:22:49.267Z,2.40
2022-11-27T13:25:20.013Z,2.33
2022-11-27T13:27:52.973Z,2.55
2022-11-27T13:30:24.934Z,2.10
2022-11-27T13:32:57.279Z,2.25
2022-11-27T13:35:31.643Z,2.25
2022-11-27T13:38:12.888Z,2.22
2022-11-27T13:40:46.189Z,2.05
2022-11-27T13:43:28.941Z,1.83
2022-11-27T13:46:11.937Z,2.45
2022-11-27T13:48:48.142Z,2.30
2022-11-27T13:51:27.831Z,2.25
2022-11-27T13:54:12.228Z,2.00
2022-11-27T13:56:43.547Z,2.15
2022-11-27T13:59:18.718Z,1.80
2022-11-27T14:01:59.998Z,3.70
2022-11-27T14:04:32.017Z,3.00
2022-11-27T14:07:06.442Z,4.68
2022-11-27T14:09:41.789Z,2.55
2022-11-27T14:12:24.802Z,2.28
2022-11-27T14:15:07.769Z,2.33
2022-11-27T14:17:41.741Z,2.15
2022-11-27T14:20:29.954Z,1.83
2022-11-27T14:23:11.660Z,2.20
2022-11-27T14:25:42.508Z,1.80
2022-11-27T14:28:21.516Z,3.05
2022-11-27T14:30:52.977Z,4.28
2022-11-27T14:33:25.307Z,3.38
2022-11-27T14:35:58.300Z,6.07
2022-11-27T14:38:30.611Z,8.15
2022-11-27T14:41:11.494Z,7.72
2022-11-27T14:43:42.025Z,8.68
2022-11-27T14:46:19.192Z,8.57
2022-11-27T14:48:51.006Z,6.90
2022-11-27T14:51:25.873Z,6.85
2022-11-27T14:54:01.376Z,3.50
2022-11-27T14:56:36.779Z,4.20
2022-11-27T14:59:07.889Z,2.55
2022-11-27T15:01:38.710Z,3.00
2022-11-27T15:04:27.106Z,2.85
2022-11-27T15:06:57.006Z,2.50
2022-11-27T15:09:32.555Z,3.00
2022-11-27T15:12:09.828Z,3.90
2022-11-27T15:14:46.498Z,3.13
2022-11-27T15:17:23.746Z,3.55
2022-11-27T15:19:53.864Z,3.13
2022-11-27T15:22:23.903Z,3.60
2022-11-27T15:25:00.764Z,4.30
2022-11-27T15:27:34.001Z,4.25
2022-11-27T15:30:13.817Z,3.92
2022-11-27T15:32:51.576Z,5.88
2022-11-27T15:35:30.385Z,5.05
2022-11-27T15:38:04.394Z,5.38
2022-11-27T15:40:36.725Z,5.07
2022-11-27T15:43:11.934Z,4.85
2022-11-27T15:45:44.323Z,4.13
2022-11-27T15:48:17.605Z,4.55
2022-11-27T15:50:51.642Z,4.38
2022-11-27T15:53:21.391Z,4.30
2022-11-27T15:55:50.978Z,4.45
2022-11-27T15:58:20.262Z,4.40
2022-11-27T16:00:51.043Z,5.22
2022-11-27T16:03:21.662Z,5.65
2022-11-27T16:05:50.918Z,5.82
2022-11-27T16:08:19.976Z,6.97
2022-11-27T16:10:49.318Z,6.13
2022-11-27T16:13:18.759Z,6.28
2022-11-27T16:15:47.934Z,5.60
2022-11-27T16:18:22.210Z,5.38
2022-11-27T16:20:51.558Z,5.03
2022-11-27T16:23:20.628Z,7.03
2022-11-27T16:25:50.354Z,7.30
2022-11-27T16:28:19.693Z,5.55
2022-11-27T16:30:49.354Z,6.82
2022-11-27T16:33:20.195Z,6.30
2022-11-27T16:35:51.919Z,7.82
2022-11-27T16:38:21.624Z,7.47
2022-11-27T16:40:54.362Z,7.82
2022-11-27T16:43:23.872Z,6.85
2022-11-27T16:45:53.307Z,6.93
2022-11-27T16:48:22.933Z,8.98
2022-11-27T16:51:02.499Z,8.75
2022-11-27T16:53:31.702Z,8.43
2022-11-27T16:56:04.437Z,6.57
2022-11-27T16:58:35.517Z,6.18
2022-11-27T17:01:06.733Z,4.80
2022-11-27T17:03:36.440Z,4.65
2022-11-27T17:06:11.551Z,5.35
2022-11-27T17:08:41.357Z,5.60
2022-11-27T17:11:11.119Z,8.23
2022-11-27T17:13:41.106Z,7.93
2022-11-27T17:16:11.634Z,9.07
2022-11-27T17:18:41.989Z,8.35
2022-11-27T17:21:15.823Z,6.85
2022-11-27T17:23:46.967Z,5.90
2022-11-27T17:26:19.105Z,5.50
2022-11-27T17:28:48.686Z,4.93
2022-11-27T17:31:20.591Z,4.70
2022-11-27T17:33:50.188Z,7.72
2022-11-27T17:36:21.059Z,10.13
2022-11-27T17:38:52.139Z,7.43
2022-11-27T17:41:22.395Z,6.10
2022-11-27T17:43:51.893Z,8.00
2022-11-27T17:46:23.553Z,8.43
2022-11-27T17:48:54.468Z,8.13
2022-11-27T17:51:25.101Z,9.43
2022-11-27T17:53:54.288Z,8.98
2022-11-27T17:56:23.665Z,8.43
2022-11-27T17:58:53.291Z,7.45
2022-11-27T18:01:24.604Z,8.32
2022-11-27T18:03:56.181Z,8.13
2022-11-27T18:06:28.252Z,7.47
2022-11-27T18:08:58.923Z,45.35
2022-11-27T18:11:32.728Z,83.68
2022-11-27T18:14:03.232Z,24.10
2022-11-27T18:16:34.840Z,20.13
2022-11-27T18:19:07.336Z,9.07
2022-11-27T18:21:38.846Z,8.73
2022-11-27T18:24:25.128Z,6.72
2022-11-27T18:27:11.373Z,11.52
2022-11-27T18:29:44.564Z,17.63
2022-11-27T18:32:17.002Z,30.42
2022-11-27T18:34:47.336Z,8.18
2022-11-27T18:37:17.815Z,8.00
2022-11-27T18:39:47.776Z,8.20
2022-11-27T18:42:17.083Z,6.47
2022-11-27T18:44:46.920Z,6.85
2022-11-27T18:47:17.380Z,6.20
2022-11-27T18:49:49.455Z,7.45
2022-11-27T18:52:20.104Z,7.05
2022-11-27T18:54:49.734Z,6.30
2022-11-27T18:57:20.478Z,6.55
2022-11-27T18:59:50.701Z,6.40
2022-11-27T19:02:20.662Z,6.75
2022-11-27T19:04:50.222Z,6.50
2022-11-27T19:07:21.178Z,6.50
2022-11-27T19:09:50.482Z,5.97
2022-11-27T19:12:19.784Z,6.40
2022-11-27T19:14:49.107Z,6.80
2022-11-27T19:17:20.033Z,7.32
2022-11-27T19:19:54.200Z,7.60
2022-11-27T19:22:25.964Z,6.55
2022-11-27T19:24:58.702Z,6.72
2022-11-27T19:27:28.861Z,5.55
2022-11-27T19:29:58.558Z,6.05
2022-11-27T19:32:27.756Z,5.65
2022-11-27T19:34:56.943Z,6.30
2022-11-27T19:37:34.598Z,16.30
2022-11-27T19:40:06.614Z,20.50
2022-11-27T19:42:36.030Z,21.15
2022-11-27T19:45:06.347Z,20.00
2022-11-27T19:47:36.432Z,12.30
2022-11-27T19:50:08.508Z,10.05
2022-11-27T19:52:39.410Z,10.70
2022-11-27T19:55:09.612Z,15.27
2022-11-27T19:57:39.482Z,15.93
2022-11-27T20:00:10.621Z,15.38
2022-11-27T20:02:50.966Z,12.13
2022-11-27T20:05:20.590Z,11.30
2022-11-27T20:07:51.772Z,11.85
2022-11-27T20:10:21.705Z,25.65
2022-11-27T20:12:51.802Z,32.05
2022-11-27T20:15:21.417Z,23.10
2022-11-27T20:17:50.858Z,18.38
2022-11-27T20:20:21.627Z,20.00
2022-11-27T20:22:52.438Z,17.80
2022-11-27T20:25:21.819Z,15.98
2022-11-27T20:27:51.446Z,14.80
2022-11-27T20:30:21.184Z,12.80
2022-11-27T20:32:50.424Z,12.38
2022-11-27T20:35:20.417Z,11.75
2022-11-27T20:37:51.509Z,10.02
2022-11-27T20:40:25.742Z,9.98
2022-11-27T20:42:55.184Z,9.60
2022-11-27T20:45:24.725Z,9.63
2022-11-27T20:47:54.233Z,9.63
2022-11-27T20:50:26.440Z,9.30
2022-11-27T20:52:57.158Z,9.30
2022-11-27T20:55:26.923Z,10.63
2022-11-27T20:57:56.272Z,10.82
2022-11-27T21:00:26.055Z,10.15
2022-11-27T21:02:55.456Z,10.63
2022-11-27T21:05:26.873Z,10.00
2022-11-27T21:07:57.770Z,11.32
2022-11-27T21:10:27.116Z,11.60
2022-11-27T21:12:56.117Z,11.98
2022-11-27T21:15:25.161Z,11.85
2022-11-27T21:17:54.644Z,10.80
2022-11-27T21:20:23.884Z,11.25
2022-11-27T21:22:52.940Z,11.85
2022-11-27T21:25:25.631Z,11.90
2022-11-27T21:27:58.102Z,12.63
2022-11-27T21:30:27.672Z,11.50
2022-11-27T21:32:56.742Z,12.60
2022-11-27T21:35:31.286Z,12.60
2022-11-27T21:38:00.787Z,12.55
2022-11-27T21:40:31.182Z,12.40
2022-11-27T21:43:00.260Z,12.13
2022-11-27T21:45:30.448Z,13.07
2022-11-27T21:47:59.771Z,12.85
2022-11-27T21:50:29.170Z,13.35
2022-11-27T21:52:58.409Z,13.52
2022-11-27T21:55:27.555Z,13.40
2022-11-27T21:57:59.462Z,12.10
2022-11-27T22:00:28.620Z,12.40
2022-11-27T22:02:57.662Z,15.30
2022-11-27T22:05:26.793Z,16.13
2022-11-27T22:07:56.070Z,16.02
2022-11-27T22:10:25.194Z,15.40
2022-11-27T22:12:54.465Z,15.30
2022-11-27T22:15:25.231Z,18.17
2022-11-27T22:17:54.763Z,14.95
2022-11-27T22:20:23.919Z,14.02
2022-11-27T22:22:53.059Z,13.00
2022-11-27T22:25:22.116Z,13.70
2022-11-27T22:27:51.203Z,11.88
2022-11-27T22:30:20.603Z,12.50
2022-11-27T22:32:56.359Z,11.18
2022-11-27T22:35:26.580Z,12.43
2022-11-27T22:37:56.383Z,11.15
2022-11-27T22:40:25.742Z,11.13
2022-11-27T22:42:55.246Z,10.77
2022-11-27T22:45:25.242Z,11.02
2022-11-27T22:47:55.839Z,10.85
2022-11-27T22:50:25.017Z,11.02
2022-11-27T22:52:58.175Z,11.02
2022-11-27T22:55:27.681Z,11.52
2022-11-27T22:57:56.718Z,11.23
2022-11-27T23:00:26.023Z,9.95
2022-11-27T23:02:56.453Z,11.18
2022-11-27T23:05:25.663Z,13.60
2022-11-27T23:07:55.235Z,13.68
2022-11-27T23:10:24.690Z,10.75
2022-11-27T23:12:53.727Z,12.32
2022-11-27T23:15:22.878Z,10.60
2022-11-27T23:17:52.682Z,10.13
2022-11-27T23:20:23.164Z,10.02
2022-11-27T23:22:52.813Z,9.45
2022-11-27T23:25:21.809Z,9.32
2022-11-27T23:27:50.924Z,10.13
2022-11-27T23:30:20.179Z,9.90
2022-11-27T23:32:49.219Z,9.77
2022-11-27T23:35:18.500Z,9.63
2022-11-27T23:37:49.053Z,9.90
2022-11-27T23:40:18.299Z,9.32
2022-11-27T23:42:47.415Z,10.13
2022-11-27T23:45:16.611Z,9.52
2022-11-27T23:47:45.722Z,9.75
2022-11-27T23:50:14.826Z,9.88
2022-11-27T23:52:43.871Z,9.32
2022-11-27T23:55:14.387Z,10.18
2022-11-27T23:57:43.495Z,10.75
